Time;durP1;ratioP1;P1;durP2;ratioP2;P2;SDS_P1;SDS_P2;PMS_P1;PMS_P2;Temp;Humidity;BMP_temperature;BMP_pressure;BME280_temperature;BME280_humidity;BME280_pressure;Samples;Min_cycle;Max_cycle;Signal;HPM_P1;HPM_P2
2023/01/30 00:01:22;;;;;;;;;;;;;;;-0.55;75.28;98610.47;5077886;28;20051;-51
2023/01/30 00:03:48;;;;;;;6.30;2.67;;;;;;;-0.67;75.51;98597.78;5068524;28;19916;-53
2023/01/30 00:06:15;;;;;;;3.65;1.70;;;;;;;-0.74;75.76;98604.66;5079231;28;20093;-50
2023/01/30 00:08:41;;;;;;;6.28;3.00;;;;;;;-0.77;76.08;98603.81;5085476;28;20383;-50
2023/01/30 00:11:09;;;;;;;6.15;3.90;;;;;;;-0.79;75.91;98603.84;5067800;28;20570;-48
2023/01/30 00:13:36;;;;;;;5.28;2.22;;;;;;;-0.82;76.46;98601.31;5083803;28;20040;-52
2023/01/30 00:16:02;;;;;;;6.82;2.75;;;;;;;-0.86;76.46;98594.53;5084207;28;20035;-52
2023/01/30 00:18:28;;;;;;;8.73;3.10;;;;;;;-1.21;76.53;98541.19;5086323;28;20139;-49
2023/01/30 00:21:02;;;;;;;5.72;2.75;;;;;;;-0.95;76.59;98580.16;5086885;28;20127;-46
2023/01/30 00:23:29;;;;;;;6.75;3.20;;;;;;;-0.98;77.14;98585.25;5073735;28;20052;-50
2023/01/30 00:25:55;;;;;;;9.25;3.70;;;;;;;-1.13;77.14;98552.19;5084063;28;20047;-49
2023/01/30 00:28:21;;;;;;;4.78;2.80;;;;;;;-0.91;77.22;98569.06;5087092;28;20079;-50
2023/01/30 00:30:50;;;;;;;5.88;2.50;;;;;;;-0.94;77.19;98568.22;5082787;28;20063;-48
2023/01/30 00:33:16;;;;;;;5.32;2.65;;;;;;;-0.95;77.45;98558.88;5070139;28;20128;-49
2023/01/30 00:35:43;;;;;;;4.00;1.95;;;;;;;-0.96;77.71;98554.63;5071640;28;20051;-49
2023/01/30 00:38:09;;;;;;;6.03;3.35;;;;;;;-0.95;77.82;98551.22;5095644;28;20081;-47
2023/01/30 00:40:35;;;;;;;12.07;3.83;;;;;;;-0.95;77.96;98544.44;5071344;28;20459;-50
2023/01/30 00:48:32;;;;;;;8.20;4.38;;;;;;;-0.76;77.96;98542.59;5073572;28;20068;-47
2023/01/30 00:50:58;;;;;;;10.30;4.50;;;;;;;-0.65;77.50;98543.34;5071493;28;20114;-48
2023/01/30 00:53:24;;;;;;;9.25;3.78;;;;;;;-0.62;77.09;98548.41;5053822;28;20085;-52
2023/01/30 00:55:51;;;;;;;3.92;1.98;;;;;;;-0.78;77.23;98544.28;5055738;28;20156;-48
2023/01/30 00:58:17;;;;;;;8.85;3.92;;;;;;;-0.86;78.12;98543.50;5089701;28;20036;-46
2023/01/30 01:00:43;;;;;;;7.10;3.30;;;;;;;-0.87;77.89;98535.00;5081693;28;20129;-48
2023/01/30 01:03:09;;;;;;;9.02;4.35;;;;;;;-0.87;78.17;98541.81;5053237;28;20424;-50
2023/01/30 01:05:35;;;;;;;9.15;4.40;;;;;;;-0.79;78.19;98534.97;5070273;28;20063;-46
2023/01/30 01:08:01;;;;;;;12.15;4.47;;;;;;;-0.76;78.33;98532.38;5054540;28;20045;-48
2023/01/30 01:10:27;;;;;;;6.22;2.47;;;;;;;-0.70;78.62;98539.13;5084515;28;20041;-47
2023/01/30 01:12:53;;;;;;;9.95;4.35;;;;;;;-0.80;78.30;98529.88;5070718;28;20044;-48
2023/01/30 01:15:21;;;;;;;9.63;3.97;;;;;;;-1.00;78.83;98507.91;5080665;28;20047;-51
2023/01/30 01:17:48;;;;;;;10.27;4.10;;;;;;;-0.93;78.98;98526.53;5065285;28;20407;-50
2023/01/30 01:20:14;;;;;;;10.23;4.15;;;;;;;-1.10;79.44;98488.41;5072131;28;20040;-48
2023/01/30 01:22:40;;;;;;;6.47;2.72;;;;;;;-0.89;79.16;98531.59;5072873;28;20086;-49
2023/01/30 01:25:07;;;;;;;10.18;5.10;;;;;;;-0.95;79.62;98525.72;5089435;28;20075;-49
2023/01/30 01:27:33;;;;;;;9.10;3.88;;;;;;;-1.01;79.75;98520.66;5086253;28;20047;-51
2023/01/30 01:29:59;;;;;;;9.20;4.32;;;;;;;-1.06;80.00;98524.94;5052942;28;20036;-51
2023/01/30 01:32:25;;;;;;;11.93;5.28;;;;;;;-1.08;80.85;98519.00;5087038;28;20047;-50
2023/01/30 01:34:51;;;;;;;8.57;3.67;;;;;;;-1.12;80.95;98508.00;5085858;28;20117;-45
2023/01/30 01:37:17;;;;;;;10.90;4.95;;;;;;;-1.07;81.45;98502.84;5089040;28;20071;-50
2023/01/30 01:42:35;;;;;;;9.38;4.63;;;;;;;-1.04;81.33;98473.06;5070476;28;20518;-51
2023/01/30 01:45:10;;;;;;;8.07;3.92;;;;;;;-0.93;80.97;98468.72;5052420;28;20032;-51
2023/01/30 01:47:48;;;;;;;6.32;3.13;;;;;;;-1.00;80.82;98462.00;5070435;28;20070;-47
2023/01/30 01:50:20;;;;;;;5.15;2.40;;;;;;;-1.25;81.27;98434.13;5070335;28;20048;-50
2023/01/30 01:52:47;;;;;;;5.25;2.90;;;;;;;-1.06;81.39;98462.03;5072902;28;20506;-47
2023/01/30 01:55:14;;;;;;;8.95;3.55;;;;;;;-1.14;81.30;98456.13;5088369;28;20413;-49
2023/01/30 01:57:54;;;;;;;11.00;5.00;;;;;;;-1.13;81.59;98457.00;5087581;28;20039;-53
2023/01/30 02:00:22;;;;;;;9.85;4.05;;;;;;;-1.43;81.50;98397.75;5052827;28;20503;-49
2023/01/30 02:03:10;;;;;;;9.05;3.53;;;;;;;-1.11;81.91;98447.63;5072222;28;20051;-50
2023/01/30 02:05:41;;;;;;;8.07;3.17;;;;;;;-1.10;81.69;98446.78;5070359;28;20472;-49
2023/01/30 02:08:23;;;;;;;5.57;2.95;;;;;;;-1.17;81.50;98440.88;5068735;28;20508;-50
2023/01/30 02:10:56;;;;;;;9.85;3.72;;;;;;;-1.15;81.74;98440.88;5085460;28;20090;-52
2023/01/30 02:13:23;;;;;;;4.40;2.55;;;;;;;-1.13;82.05;98439.13;5080758;28;20040;-45
2023/01/30 02:15:49;;;;;;;11.30;5.32;;;;;;;-1.16;82.22;98434.06;5053946;28;20044;-47
2023/01/30 02:18:16;;;;;;;6.38;2.85;;;;;;;-1.23;82.99;98430.72;5088741;28;20036;-48
2023/01/30 02:21:10;;;;;;;7.95;3.53;;;;;;;-1.23;83.53;98447.72;5088360;28;20078;-49
2023/01/30 02:23:36;;;;;;;4.05;2.40;;;;;;;-1.33;84.16;98435.03;5071191;28;20513;-46
2023/01/30 02:27:10;;;;;;;8.38;3.60;;;;;;;-1.35;84.54;98424.00;5067328;28;20102;-47
2023/01/30 02:30:13;;;;;;;5.53;2.40;;;;;;;-1.36;85.18;98424.84;5010494;28;20105;-49
2023/01/30 02:33:11;;;;;;;9.88;4.18;;;;;;;-1.37;85.67;98409.59;5018852;28;20493;-49
2023/01/30 02:35:41;;;;;;;8.60;3.80;;;;;;;-1.28;85.89;98414.63;5050371;28;20052;-49
2023/01/30 02:38:18;;;;;;;5.22;2.45;;;;;;;-1.32;85.31;98398.50;5070017;28;20388;-49
2023/01/30 02:40:56;;;;;;;6.18;2.88;;;;;;;-1.30;85.47;98389.13;5089305;28;20080;-48
2023/01/30 02:43:41;;;;;;;9.52;4.13;;;;;;;-1.32;85.35;98385.75;5071362;28;20039;-48
2023/01/30 02:46:18;;;;;;;8.68;3.70;;;;;;;-1.51;85.05;98363.81;5081580;28;20090;-53
2023/01/30 02:49:00;;;;;;;4.57;2.17;;;;;;;-1.30;84.87;98390.81;5070759;28;20098;-48
2023/01/30 02:51:29;;;;;;;9.50;3.35;;;;;;;-1.34;84.67;98390.00;5087428;28;20468;-51
2023/01/30 02:53:55;;;;;;;7.15;3.78;;;;;;;-1.47;84.56;98344.25;5050394;28;20511;-50
2023/01/30 02:56:22;;;;;;;11.75;5.22;;;;;;;-1.23;84.21;98384.84;5088048;28;20046;-47
2023/01/30 02:58:52;;;;;;;12.15;5.10;;;;;;;-1.20;84.16;98383.97;5089291;28;20035;-48
2023/01/30 03:01:31;;;;;;;8.27;3.35;;;;;;;-1.13;84.01;98376.25;5069268;28;20147;-48
2023/01/30 03:04:05;;;;;;;7.38;3.85;;;;;;;-1.16;83.35;98360.97;5034525;28;20047;-46
2023/01/30 03:06:41;;;;;;;5.30;2.75;;;;;;;-1.17;82.95;98356.75;5068924;28;20133;-47
2023/01/30 03:09:10;;;;;;;11.60;4.93;;;;;;;-1.13;83.07;98350.75;5068037;28;20044;-49
2023/01/30 03:11:55;;;;;;;12.27;5.00;;;;;;;-1.05;82.76;98336.25;5088877;28;20042;-48
2023/01/30 03:14:30;;;;;;;10.38;3.97;;;;;;;-0.98;82.16;98339.53;5087718;28;20366;-48
2023/01/30 03:16:58;;;;;;;8.02;3.97;;;;;;;-0.99;81.84;98333.59;5083016;28;20040;-49
2023/01/30 03:19:25;;;;;;;5.80;2.55;;;;;;;-0.96;81.80;98342.94;5084955;28;20127;-48
2023/01/30 03:21:51;;;;;;;12.18;5.63;;;;;;;-1.27;81.60;98270.16;5085027;28;20036;-50
2023/01/30 03:24:17;;;;;;;13.55;5.85;;;;;;;-0.97;81.50;98285.13;5079131;28;20050;-48
2023/01/30 03:26:49;;;;;;;9.63;3.70;;;;;;;-0.75;81.24;98321.47;5070729;28;20590;-50
2023/01/30 03:29:15;;;;;;;12.80;4.20;;;;;;;-0.79;80.65;98317.25;5052847;28;20048;-50
2023/01/30 03:31:41;;;;;;;9.18;4.63;;;;;;;-0.77;80.50;98328.28;5085763;28;20083;-49
2023/01/30 03:34:07;;;;;;;5.97;2.67;;;;;;;-0.78;80.10;98316.38;5085858;28;20067;-48
2023/01/30 03:36:33;;;;;;;6.15;3.10;;;;;;;-0.84;80.07;98307.09;5088568;28;20143;-51
2023/01/30 03:39:00;;;;;;;3.00;2.05;;;;;;;-0.88;79.86;98328.38;5091120;28;20127;-49
2023/01/30 03:41:26;;;;;;;9.27;4.88;;;;;;;-0.97;79.57;98301.28;5087263;28;20044;-52
2023/01/30 03:43:53;;;;;;;13.68;5.38;;;;;;;-0.95;80.06;98291.91;5069794;28;20052;-52
2023/01/30 03:46:19;;;;;;;14.35;5.20;;;;;;;-0.77;80.04;98293.41;5053606;28;20507;-48
2023/01/30 03:48:45;;;;;;;11.75;5.05;;;;;;;-0.74;79.82;98298.47;5083872;28;20047;-47
2023/01/30 03:51:12;;;;;;;9.98;5.03;;;;;;;-0.70;79.39;98305.22;5054178;28;20044;-50
2023/01/30 03:53:38;;;;;;;8.65;4.07;;;;;;;-0.71;79.13;98295.03;5074764;28;20692;-46
2023/01/30 03:56:04;;;;;;;7.90;3.83;;;;;;;-0.81;79.07;98286.66;5067347;28;20040;-52
2023/01/30 03:58:33;;;;;;;6.57;3.28;;;;;;;-0.78;78.88;98275.56;5050785;28;20439;-51
2023/01/30 04:01:10;;;;;;;9.65;4.28;;;;;;;-0.69;78.77;98271.22;5085654;28;20094;-50
2023/01/30 04:03:36;;;;;;;9.27;4.35;;;;;;;-0.64;78.52;98272.00;5081865;28;20044;-52
2023/01/30 04:06:03;;;;;;;8.25;4.50;;;;;;;-0.64;78.17;98258.38;5072634;28;20783;-52
2023/01/30 04:08:29;;;;;;;10.02;4.75;;;;;;;-0.61;78.28;98254.06;5074645;28;20093;-48
2023/01/30 04:10:55;;;;;;;8.90;4.35;;;;;;;-0.67;78.05;98253.31;5072732;28;20032;-48
2023/01/30 04:13:22;;;;;;;8.95;4.50;;;;;;;-0.69;77.96;98255.91;5073679;28;20121;-52
2023/01/30 04:15:48;;;;;;;12.73;4.50;;;;;;;-0.70;77.84;98250.81;5090868;28;20048;-49
2023/01/30 04:18:33;;;;;;;10.23;5.10;;;;;;;-0.76;78.12;98244.06;5077013;28;20191;-51
2023/01/30 04:21:06;;;;;;;10.90;4.55;;;;;;;-0.74;77.97;98244.91;5089788;28;20040;-51
2023/01/30 04:23:36;;;;;;;8.80;4.30;;;;;;;-0.77;77.89;98238.97;5081105;28;20127;-49
2023/01/30 04:26:03;;;;;;;5.65;3.40;;;;;;;-1.00;77.95;98201.88;5073985;28;20123;-50
2023/01/30 04:28:30;;;;;;;10.70;4.80;;;;;;;-0.83;77.63;98226.28;5085735;28;20507;-50
2023/01/30 04:30:56;;;;;;;9.20;4.47;;;;;;;-0.88;78.10;98223.81;5080982;28;20126;-51
2023/01/30 04:33:41;;;;;;;7.38;3.97;;;;;;;-0.92;77.87;98197.50;5086495;28;20094;-53
2023/01/30 04:36:09;;;;;;;8.65;4.38;;;;;;;-0.70;77.60;98228.69;5074265;28;20036;-53
2023/01/30 04:38:35;;;;;;;11.25;4.30;;;;;;;-0.76;77.80;98225.38;5068570;28;20488;-55
2023/01/30 04:41:03;;;;;;;10.65;4.88;;;;;;;-0.68;77.58;98223.56;5054879;28;20048;-49
2023/01/30 04:43:32;;;;;;;7.80;4.38;;;;;;;-0.77;77.33;98208.38;5089977;28;20047;-48
2023/01/30 04:46:21;;;;;;;8.05;4.40;;;;;;;-0.77;77.35;98216.00;5088344;28;20101;-51
2023/01/30 04:48:47;;;;;;;8.13;3.90;;;;;;;-0.73;77.09;98210.03;5069923;28;20567;-47
2023/01/30 04:51:14;;;;;;;6.43;3.40;;;;;;;-0.77;77.47;98201.56;5090063;28;20043;-48
2023/01/30 04:53:40;;;;;;;8.75;4.75;;;;;;;-0.74;77.29;98206.63;5084383;28;20138;-48
2023/01/30 04:56:07;;;;;;;6.88;3.83;;;;;;;-1.03;77.03;98178.94;5069900;28;20113;-51
2023/01/30 04:58:33;;;;;;;7.85;4.10;;;;;;;-0.88;77.29;98190.66;5082627;28;20044;-51
2023/01/30 05:01:16;;;;;;;7.85;4.57;;;;;;;-0.78;77.50;98187.09;5054179;28;20063;-50
2023/01/30 05:03:42;;;;;;;10.48;4.50;;;;;;;-0.81;77.55;98184.63;5085905;28;20564;-48
2023/01/30 05:06:08;;;;;;;6.10;2.97;;;;;;;-0.87;77.24;98184.69;5089638;28;20035;-49
2023/01/30 05:08:34;;;;;;;8.88;4.30;;;;;;;-0.89;77.56;98178.78;5085902;28;20110;-48
2023/01/30 05:11:00;;;;;;;9.27;4.05;;;;;;;-0.89;77.96;98184.69;5076928;28;20124;-48
2023/01/30 05:13:26;;;;;;;7.75;3.38;;;;;;;-0.81;77.88;98173.56;5052273;28;20041;-54
2023/01/30 05:15:52;;;;;;;5.90;3.35;;;;;;;-0.98;77.52;98145.72;5070456;28;20044;-50
2023/01/30 05:18:18;;;;;;;5.25;2.38;;;;;;;-0.90;77.40;98139.69;5074676;28;20048;-49
2023/01/30 05:20:43;;;;;;;6.65;3.92;;;;;;;-0.81;77.33;98151.44;5089196;28;20040;-51
2023/01/30 05:23:09;;;;;;;8.85;4.93;;;;;;;-1.17;77.21;98088.19;5087269;28;20101;-50
2023/01/30 05:25:35;;;;;;;10.10;5.13;;;;;;;-0.73;77.07;98147.06;5068986;28;20147;-50
2023/01/30 05:28:01;;;;;;;13.45;5.22;;;;;;;-0.75;77.10;98145.41;5086483;28;20036;-48
2023/01/30 05:30:27;;;;;;;11.90;4.95;;;;;;;-0.76;77.18;98133.53;5090077;28;20509;-50
2023/01/30 05:32:53;;;;;;;10.52;5.00;;;;;;;-0.69;77.20;98135.97;5087803;28;20149;-54
2023/01/30 05:35:19;;;;;;;13.00;5.97;;;;;;;-0.66;77.31;98137.63;5087477;28;20035;-52
2023/01/30 05:37:49;;;;;;;7.57;4.35;;;;;;;-0.77;76.54;98129.28;5083252;28;20043;-51
2023/01/30 05:40:15;;;;;;;4.82;2.97;;;;;;;-0.89;77.32;98125.22;5088679;28;20063;-48
2023/01/30 05:42:41;;;;;;;13.48;5.53;;;;;;;-0.89;77.46;98122.66;5090029;28;20086;-47
2023/01/30 05:45:08;;;;;;;10.10;5.55;;;;;;;-0.87;77.64;98128.56;5089204;28;20075;-50
2023/01/30 05:47:33;;;;;;;8.00;4.32;;;;;;;-0.84;77.14;98120.91;5088415;28;20139;-52
2023/01/30 05:49:59;;;;;;;9.43;4.72;;;;;;;-0.87;77.52;98126.00;5089630;28;20118;-51
2023/01/30 05:52:25;;;;;;;11.60;4.88;;;;;;;-0.87;77.78;98119.22;5088255;28;20075;-48
2023/01/30 05:54:51;;;;;;;10.45;4.40;;;;;;;-0.77;77.55;98106.31;5072133;28;20050;-53
2023/01/30 05:57:17;;;;;;;6.75;4.03;;;;;;;-0.79;77.32;98108.91;5085571;28;20090;-49
2023/01/30 05:59:43;;;;;;;9.70;4.20;;;;;;;-0.80;77.65;98103.81;5068602;28;20044;-48
2023/01/30 06:02:09;;;;;;;11.90;5.55;;;;;;;-0.77;77.47;98106.31;5071801;28;20044;-52
2023/01/30 06:04:35;;;;;;;9.68;4.63;;;;;;;-0.73;77.30;98100.34;5072056;28;20091;-52
2023/01/30 06:07:01;;;;;;;9.25;3.70;;;;;;;-0.64;77.16;98102.72;5089802;28;20048;-50
2023/01/30 06:09:27;;;;;;;7.65;3.40;;;;;;;-0.77;77.21;98094.41;5071583;28;20039;-50
2023/01/30 06:11:54;;;;;;;8.18;4.43;;;;;;;-0.81;77.42;98100.44;5088891;28;20036;-47
2023/01/30 06:14:20;;;;;;;8.90;4.38;;;;;;;-1.08;77.54;98049.81;5090261;28;20044;-53
2023/01/30 06:16:46;;;;;;;11.38;5.35;;;;;;;-0.73;77.58;98102.88;5071198;28;20101;-51
2023/01/30 06:19:12;;;;;;;4.45;2.78;;;;;;;-0.71;77.50;98096.03;5069075;28;20072;-48
2023/01/30 06:21:38;;;;;;;11.98;5.40;;;;;;;-0.89;77.38;98066.56;5088752;28;20149;-48
2023/01/30 06:24:04;;;;;;;9.65;4.65;;;;;;;-0.65;77.53;98101.03;5094430;28;20044;-51
2023/01/30 06:26:29;;;;;;;7.75;3.08;;;;;;;-0.71;77.57;98103.69;5099844;28;20040;-52
2023/01/30 06:28:55;;;;;;;9.80;4.47;;;;;;;-0.71;77.71;98093.47;5078148;28;20091;-51
2023/01/30 06:31:21;;;;;;;9.35;2.80;;;;;;;-0.59;77.57;98111.16;5093369;28;20044;-52
2023/01/30 06:33:48;;;;;;;9.95;5.40;;;;;;;-0.80;77.30;98063.84;5087365;28;20035;-50
2023/01/30 06:36:14;;;;;;;10.38;4.85;;;;;;;-0.63;77.29;98092.47;5073949;28;20040;-47
2023/01/30 06:38:39;;;;;;;7.97;3.85;;;;;;;-0.69;77.52;98086.66;5089580;28;20071;-49
2023/01/30 06:41:05;;;;;;;12.60;4.55;;;;;;;-0.71;77.54;98085.81;5087974;28;20048;-48
2023/01/30 06:43:31;;;;;;;7.97;3.88;;;;;;;-0.95;77.36;98044.53;5086756;28;20193;-49
2023/01/30 06:45:58;;;;;;;4.65;2.17;;;;;;;-0.70;77.67;98093.47;5086998;28;20036;-48
2023/01/30 06:48:24;;;;;;;7.45;4.07;;;;;;;-0.69;77.82;98094.31;5079113;28;20037;-49
2023/01/30 06:50:50;;;;;;;7.70;4.22;;;;;;;-0.69;78.21;98081.56;5041260;28;20052;-51
2023/01/30 06:53:16;;;;;;;7.20;3.45;;;;;;;-0.78;78.15;98092.72;5066922;28;20040;-52
2023/01/30 06:55:42;;;;;;;6.22;3.10;;;;;;;-0.86;78.20;98082.66;5084875;28;20059;-50
2023/01/30 06:58:10;;;;;;;6.63;3.70;;;;;;;-0.86;78.84;98087.75;5082986;28;20032;-51
2023/01/30 07:00:38;;;;;;;5.80;3.17;;;;;;;-0.82;78.86;98087.69;5070965;28;20122;-49
2023/01/30 07:03:07;;;;;;;3.67;2.25;;;;;;;-0.88;78.87;98097.13;5082343;28;20052;-53
2023/01/30 07:05:35;;;;;;;9.75;4.22;;;;;;;-0.86;79.06;98077.53;5034433;28;20516;-50
2023/01/30 07:08:01;;;;;;;10.70;5.13;;;;;;;-1.16;79.26;98013.41;5067321;28;20041;-53
2023/01/30 07:10:30;;;;;;;7.00;3.45;;;;;;;-0.70;79.26;98075.59;5050796;28;20540;-57
2023/01/30 07:12:56;;;;;;;10.70;5.18;;;;;;;-0.65;79.48;98068.72;5074335;28;21981;-49
2023/01/30 07:15:23;;;;;;;7.88;3.10;;;;;;;-0.68;78.81;98042.41;5083884;28;20048;-51
2023/01/30 07:17:52;;;;;;;9.77;3.58;;;;;;;-0.51;78.82;98064.22;5086425;28;20044;-51
2023/01/30 07:20:18;;;;;;;10.63;5.05;;;;;;;-0.51;78.52;98065.94;5086951;28;20043;-49
2023/01/30 07:22:51;;;;;;;12.18;4.70;;;;;;;-0.54;78.36;98066.00;5088454;28;20445;-53
2023/01/30 07:25:18;;;;;;;5.38;2.40;;;;;;;-0.55;78.16;98057.50;5086623;28;20538;-55
2023/01/30 07:27:54;;;;;;;8.85;3.58;;;;;;;-0.76;78.27;98014.47;5088533;28;20047;-55
2023/01/30 07:30:20;;;;;;;7.53;4.00;;;;;;;-0.54;78.25;98050.69;5088062;28;20040;-52
2023/01/30 07:32:54;;;;;;;5.63;3.10;;;;;;;-0.59;78.77;98044.81;5087429;28;20035;-49
2023/01/30 07:35:21;;;;;;;7.00;3.92;;;;;;;-0.62;78.86;98044.84;5068634;28;20169;-50
2023/01/30 07:37:48;;;;;;;6.93;3.90;;;;;;;-0.65;78.94;98034.69;5068313;28;20043;-51
2023/01/30 07:40:15;;;;;;;8.80;4.32;;;;;;;-0.62;79.08;98025.28;5068223;28;20088;-49
2023/01/30 07:42:42;;;;;;;7.72;4.05;;;;;;;-0.51;78.85;98031.06;5068372;28;20471;-50
2023/01/30 07:45:08;;;;;;;10.50;4.03;;;;;;;-0.51;78.96;98028.50;5083600;28;20032;-48
2023/01/30 07:47:34;;;;;;;10.48;3.92;;;;;;;-0.40;78.60;98033.41;5088423;28;20047;-51
2023/01/30 07:50:00;;;;;;;7.78;2.75;;;;;;;-0.35;78.28;98023.97;5073574;28;20063;-50
2023/01/30 07:52:26;;;;;;;10.90;4.72;;;;;;;-0.53;78.30;97989.41;5067364;28;20036;-51
2023/01/30 07:54:52;;;;;;;7.28;3.95;;;;;;;-0.40;78.11;97990.03;5068333;28;20066;-48
2023/01/30 07:57:18;;;;;;;8.00;4.30;;;;;;;-0.27;78.02;98009.38;5073797;28;20040;-50
2023/01/30 07:59:43;;;;;;;8.98;4.13;;;;;;;-0.20;77.93;98010.09;5088282;28;20093;-52
2023/01/30 08:02:10;;;;;;;8.38;3.92;;;;;;;-0.24;77.51;98001.66;5048903;28;20044;-51
2023/01/30 08:04:37;;;;;;;7.15;3.80;;;;;;;-0.20;77.68;98005.81;5077206;28;20032;-50
2023/01/30 08:07:03;;;;;;;11.70;4.35;;;;;;;-0.22;77.42;97999.06;5088061;28;20093;-49
2023/01/30 08:09:28;;;;;;;5.38;2.55;;;;;;;-0.26;77.66;98015.31;5087058;28;20040;-51
2023/01/30 08:11:54;;;;;;;4.38;2.45;;;;;;;-0.31;78.24;97984.75;5087203;28;20090;-54
2023/01/30 08:14:20;;;;;;;7.30;3.25;;;;;;;-0.27;78.44;97996.59;5068161;28;20041;-54
2023/01/30 08:16:46;;;;;;;5.72;2.58;;;;;;;-0.29;78.46;97997.50;5086650;28;20043;-49
2023/01/30 08:19:12;;;;;;;6.45;3.20;;;;;;;-0.35;78.54;97978.03;5084061;28;20032;-53
2023/01/30 08:21:38;;;;;;;6.93;3.47;;;;;;;-0.44;78.77;97958.63;5067812;28;20076;-50
2023/01/30 08:24:04;;;;;;;8.57;4.40;;;;;;;-0.17;79.09;97987.06;5068831;28;20040;-51
2023/01/30 08:26:30;;;;;;;8.68;4.05;;;;;;;-0.14;79.21;97979.34;5086548;28;20063;-50
2023/01/30 08:28:56;;;;;;;9.95;5.20;;;;;;;-0.13;79.44;97975.91;5087830;28;20522;-51
2023/01/30 08:31:22;;;;;;;9.38;4.82;;;;;;;-0.09;79.46;97968.16;5088048;28;20048;-49
2023/01/30 08:33:48;;;;;;;9.95;4.45;;;;;;;0.02;79.46;97962.00;5073429;28;20498;-50
2023/01/30 08:36:14;;;;;;;9.27;4.43;;;;;;;0.12;79.74;97953.28;5066526;28;20048;-52
2023/01/30 08:38:40;;;;;;;8.77;4.05;;;;;;;0.17;78.95;97959.97;5066376;28;20507;-50
2023/01/30 08:41:07;;;;;;;9.27;4.72;;;;;;;0.12;78.92;97953.28;5067720;28;20441;-51
2023/01/30 08:43:33;;;;;;;6.07;3.28;;;;;;;0.14;78.94;97949.81;5066480;28;20045;-49
2023/01/30 08:45:59;;;;;;;6.78;3.40;;;;;;;0.03;78.86;97959.41;5084015;28;20040;-54
2023/01/30 08:48:25;;;;;;;9.77;4.60;;;;;;;0.02;78.42;97954.34;5090529;28;20048;-56
2023/01/30 08:50:52;;;;;;;8.05;4.13;;;;;;;0.08;78.59;97946.56;5069697;28;20050;-49
2023/01/30 08:53:18;;;;;;;11.02;4.30;;;;;;;0.11;78.47;97944.75;5070071;28;20036;-52
2023/01/30 08:55:44;;;;;;;7.30;3.38;;;;;;;0.10;78.56;97935.44;5070063;28;20066;-52
2023/01/30 08:58:10;;;;;;;5.60;3.03;;;;;;;0.04;78.42;97937.28;5088992;28;20040;-49
2023/01/30 09:00:38;;;;;;;7.80;3.55;;;;;;;0.07;78.26;97930.38;5091372;28;20043;-49
2023/01/30 09:03:04;;;;;;;7.57;2.53;;;;;;;0.10;77.96;97934.59;5091307;28;20040;-53
2023/01/30 09:05:29;;;;;;;9.30;3.75;;;;;;;0.07;77.85;97932.09;5082776;28;20044;-51
2023/01/30 09:07:55;;;;;;;9.48;2.92;;;;;;;0.15;78.19;97923.41;5070963;28;20071;-47
2023/01/30 09:10:23;;;;;;;10.15;4.53;;;;;;;0.19;78.17;97925.03;5070922;28;20040;-48
2023/01/30 09:12:49;;;;;;;8.82;3.55;;;;;;;0.13;77.65;97914.09;5071024;28;20048;-53
2023/01/30 09:15:14;;;;;;;11.48;4.93;;;;;;;-0.06;77.86;97911.09;5069414;28;20049;-52
2023/01/30 09:17:40;;;;;;;9.25;4.20;;;;;;;0.13;78.19;97924.31;5070768;28;20518;-50
2023/01/30 09:20:11;;;;;;;7.90;4.10;;;;;;;0.24;78.25;97919.81;5073302;28;20046;-53
2023/01/30 09:22:37;;;;;;;7.22;2.90;;;;;;;0.24;77.83;97914.69;5089486;28;20099;-50
2023/01/30 09:25:04;;;;;;;8.57;3.10;;;;;;;0.19;77.42;97919.06;5089519;28;20569;-50
2023/01/30 09:27:30;;;;;;;9.50;4.22;;;;;;;0.19;78.06;97903.75;5088713;28;20097;-50
2023/01/30 09:29:56;;;;;;;9.20;4.70;;;;;;;0.12;77.61;97903.03;5072329;28;20098;-56
2023/01/30 09:32:22;;;;;;;9.90;4.90;;;;;;;0.18;78.00;97892.66;5089606;28;20458;-58
2023/01/30 09:34:48;;;;;;;12.02;4.90;;;;;;;0.33;78.12;97883.81;5069157;28;20036;-55
2023/01/30 09:37:14;;;;;;;7.75;3.53;;;;;;;0.40;77.69;97870.03;5088892;28;20510;-51
2023/01/30 09:39:40;;;;;;;6.43;3.33;;;;;;;0.19;77.16;97850.94;5090693;28;20139;-54
2023/01/30 09:42:13;;;;;;;10.40;4.60;;;;;;;0.47;76.75;97865.63;5089260;28;20481;-51
2023/01/30 09:44:49;;;;;;;5.55;3.13;;;;;;;0.50;76.71;97870.66;5089439;28;20044;-51
2023/01/30 09:47:39;;;;;;;9.18;4.18;;;;;;;0.39;76.45;97864.09;5070414;28;20514;-55
2023/01/30 09:50:37;;;;;;;4.40;2.55;;;;;;;0.50;76.29;97852.78;5068874;28;20091;-48
2023/01/30 09:53:12;;;;;;;7.75;3.80;;;;;;;0.54;76.82;97849.25;5085658;28;20097;-49
2023/01/30 09:55:42;;;;;;;11.32;4.53;;;;;;;0.59;76.69;97857.66;5070249;28;20119;-49
2023/01/30 09:58:17;;;;;;;7.82;3.75;;;;;;;0.57;76.20;97844.09;5076262;28;20067;-57
2023/01/30 10:00:45;;;;;;;8.98;4.07;;;;;;;0.60;76.11;97849.13;5090227;28;20083;-50
2023/01/30 10:03:18;;;;;;;9.00;4.28;;;;;;;0.51;76.02;97836.56;5089027;28;20599;-50
2023/01/30 10:05:53;;;;;;;10.75;4.10;;;;;;;0.58;75.70;97843.19;5087888;28;20051;-54
2023/01/30 10:08:48;;;;;;;12.27;4.97;;;;;;;0.54;75.97;97834.75;5069731;28;20063;-51
2023/01/30 10:11:20;;;;;;;5.75;2.85;;;;;;;0.56;75.72;97817.69;5069470;28;20056;-49
2023/01/30 10:13:59;;;;;;;10.05;3.97;;;;;;;0.52;75.53;97887.66;5069728;28;20132;-49
2023/01/30 10:17:02;;;;;;;5.82;3.20;;;;;;;0.44;75.87;97828.19;5076972;28;20370;-49
2023/01/30 10:19:38;;;;;;;10.10;4.47;;;;;;;0.51;76.35;97813.56;5005044;28;20047;-50
2023/01/30 10:22:27;;;;;;;6.40;2.35;;;;;;;0.52;75.92;97810.13;5076794;28;20055;-52
2023/01/30 10:25:16;;;;;;;9.35;3.63;;;;;;;0.49;75.68;97807.63;5087272;28;20134;-50
2023/01/30 10:27:51;;;;;;;9.93;3.55;;;;;;;0.47;76.04;97806.84;5071304;28;20042;-52
2023/01/30 10:30:18;;;;;;;6.85;3.75;;;;;;;0.53;75.70;97810.06;5054797;28;20047;-53
2023/01/30 10:32:52;;;;;;;9.00;4.28;;;;;;;0.63;75.84;97813.25;5083929;28;20066;-53
2023/01/30 10:35:21;;;;;;;10.38;5.47;;;;;;;0.59;75.75;97798.84;5084867;28;20081;-49
2023/01/30 10:38:12;;;;;;;7.70;3.05;;;;;;;0.71;75.55;97821.56;5068077;28;20043;-55
2023/01/30 10:41:35;;;;;;;8.85;4.13;;;;;;;0.63;75.80;97787.69;5068644;28;20048;-52
2023/01/30 10:44:06;;;;;;;5.47;3.42;;;;;;;0.59;75.66;97827.81;5007055;28;20081;-51
2023/01/30 10:46:38;;;;;;;13.77;4.35;;;;;;;0.45;75.95;97793.25;5019160;28;20056;-50
2023/01/30 10:49:18;;;;;;;11.15;4.85;;;;;;;0.49;76.49;97780.34;5055205;28;20052;-53
2023/01/30 10:52:06;;;;;;;11.43;4.63;;;;;;;0.21;76.62;97718.84;5072153;28;20043;-53
2023/01/30 10:54:37;;;;;;;6.45;3.28;;;;;;;0.53;76.53;97778.56;5087962;28;20040;-54
2023/01/30 10:57:22;;;;;;;8.00;3.42;;;;;;;0.47;76.68;97768.50;5069416;28;20415;-53
2023/01/30 11:00:03;;;;;;;8.70;3.63;;;;;;;0.46;77.08;97752.34;5089299;28;20053;-49
2023/01/30 11:02:43;;;;;;;11.75;3.95;;;;;;;0.52;77.33;97759.84;5089288;28;20040;-50
2023/01/30 11:05:18;;;;;;;10.82;4.90;;;;;;;0.65;77.58;97756.09;5087783;28;20039;-50
2023/01/30 11:07:46;;;;;;;6.22;2.90;;;;;;;0.80;76.87;97780.41;5072557;28;20052;-51
2023/01/30 11:10:19;;;;;;;6.30;3.17;;;;;;;0.58;76.90;97746.88;5067360;28;20094;-53
2023/01/30 11:12:45;;;;;;;10.25;4.90;;;;;;;0.44;76.52;97746.41;5067434;28;20789;-52
2023/01/30 11:15:11;;;;;;;12.27;4.68;;;;;;;0.36;76.83;97718.50;5074348;28;20062;-49
2023/01/30 11:17:42;;;;;;;8.45;4.55;;;;;;;0.56;76.93;97724.81;5087631;28;20040;-49
2023/01/30 11:20:19;;;;;;;10.57;4.55;;;;;;;0.54;77.13;97734.22;5073607;28;20048;-48
2023/01/30 11:22:51;;;;;;;8.15;4.20;;;;;;;0.57;77.13;97735.00;5081396;28;20046;-53
2023/01/30 11:25:20;;;;;;;7.63;3.72;;;;;;;0.63;77.18;97741.69;5087292;28;20040;-50
2023/01/30 11:27:55;;;;;;;9.38;4.47;;;;;;;0.55;77.67;97731.63;5087177;28;20479;-52
2023/01/30 11:30:26;;;;;;;9.57;4.88;;;;;;;0.38;77.76;97692.88;5088450;28;20039;-57
2023/01/30 11:33:13;;;;;;;8.15;4.70;;;;;;;0.50;77.97;97732.63;5070964;28;20065;-51
2023/01/30 11:35:59;;;;;;;8.50;3.90;;;;;;;0.27;77.93;97685.50;5083914;28;20059;-49
2023/01/30 11:38:27;;;;;;;7.88;3.90;;;;;;;0.48;78.18;97727.56;5083602;28;20399;-48
2023/01/30 11:41:06;;;;;;;7.03;3.10;;;;;;;0.50;78.60;97719.84;5070299;28;20060;-52
2023/01/30 11:43:40;;;;;;;12.45;4.50;;;;;;;0.55;78.35;97710.34;5080853;28;20032;-51
2023/01/30 11:46:13;;;;;;;13.68;6.28;;;;;;;0.53;78.12;97701.88;5068513;28;20060;-49
2023/01/30 11:48:53;;;;;;;9.35;4.93;;;;;;;0.60;78.26;97713.63;5067100;28;20116;-56
2023/01/30 11:51:22;;;;;;;10.00;4.28;;;;;;;0.59;78.21;97723.00;5067063;28;20415;-56
2023/01/30 11:54:02;;;;;;;11.00;4.53;;;;;;;0.64;78.22;97717.75;5064846;28;20041;-54
2023/01/30 11:56:33;;;;;;;11.10;5.97;;;;;;;0.62;78.50;97702.50;5083822;28;20155;-53